Time;durP1;ratioP1;P1;durP2;ratioP2;P2;SDS_P1;SDS_P2;PMS_P1;PMS_P2;Temp;Humidity;BMP_temperature;BMP_pressure;BME280_temperature;BME280_humidity;BME280_pressure;Samples;Min_cycle;Max_cycle;Signal;HPM_P1;HPM_P2
2022/08/23 00:00:48;;;;;;;2.67;2.30;;;19.90;31.10;;;;;;10584317;27;20430;-78
2022/08/23 00:05:54;;;;;;;1.90;1.80;;;19.90;31.40;;;;;;10611040;27;21013;-78
2022/08/23 00:10:59;;;;;;;2.50;2.30;;;19.80;30.90;;;;;;10593203;27;20305;-77
2022/08/23 00:16:04;;;;;;;2.33;2.23;;;19.70;31.30;;;;;;10584221;27;20223;-75
2022/08/23 00:21:09;;;;;;;2.40;2.20;;;19.70;31.90;;;;;;10594200;27;20219;-75
2022/08/23 00:26:12;;;;;;;2.30;2.10;;;19.60;31.90;;;;;;10599133;27;20246;-75
2022/08/23 00:31:17;;;;;;;1.93;1.70;;;19.50;31.40;;;;;;10595676;27;20321;-77
2022/08/23 00:36:20;;;;;;;2.10;2.00;;;19.30;31.80;;;;;;10593382;27;20223;-76
2022/08/23 00:41:24;;;;;;;2.33;2.13;;;19.20;31.70;;;;;;10596155;27;20228;-75
2022/08/23 00:52:10;;;;;;;1.90;1.80;;;19.10;33.10;;;;;;10592806;27;20218;-76
2022/08/23 00:57:18;;;;;;;2.23;2.03;;;19.00;32.30;;;;;;10595562;27;20603;-76
2022/08/23 01:02:22;;;;;;;1.90;1.80;;;19.00;32.50;;;;;;10590999;27;20227;-76
2022/08/23 01:07:36;;;;;;;1.90;1.80;;;18.90;32.40;;;;;;10591063;27;20595;-75
2022/08/23 01:12:43;;;;;;;2.00;1.90;;;18.90;33.70;;;;;;10597023;27;20227;-77
2022/08/23 01:17:54;;;;;;;2.33;2.20;;;18.90;32.70;;;;;;10598345;27;20226;-76
2022/08/23 01:23:02;;;;;;;1.80;1.70;;;18.80;32.90;;;;;;10597706;27;20607;-76
2022/08/23 01:28:07;;;;;;;1.93;1.77;;;18.80;33.00;;;;;;10587383;27;20267;-76
2022/08/23 01:33:10;;;;;;;2.87;2.03;;;18.80;32.70;;;;;;10590522;27;20309;-76
2022/08/23 01:38:17;;;;;;;2.77;1.87;;;18.70;32.40;;;;;;10592066;27;20233;-76
2022/08/23 01:43:23;;;;;;;3.00;1.87;;;18.70;32.50;;;;;;10589125;27;20745;-76
2022/08/23 01:48:26;;;;;;;2.00;1.90;;;18.60;32.90;;;;;;10593015;27;20227;-76
2022/08/23 01:53:47;;;;;;;2.20;2.00;;;18.60;32.50;;;;;;10592637;27;20226;-76
2022/08/23 01:58:56;;;;;;;2.50;2.30;;;18.50;33.80;;;;;;10592519;27;20402;-76
2022/08/23 02:04:01;;;;;;;1.97;1.87;;;18.40;33.20;;;;;;10593900;27;20267;-76
2022/08/23 02:09:07;;;;;;;1.93;1.83;;;18.30;32.70;;;;;;10598326;27;20215;-75
2022/08/23 02:14:21;;;;;;;2.10;2.00;;;18.20;33.00;;;;;;10593299;27;20706;-76
2022/08/23 02:19:25;;;;;;;2.60;1.93;;;18.20;33.70;;;;;;10592593;27;20301;-76
2022/08/23 02:24:30;;;;;;;3.93;1.93;;;18.10;33.30;;;;;;10589330;27;20740;-76
2022/08/23 02:29:35;;;;;;;1.90;1.80;;;18.10;33.20;;;;;;10586329;27;20230;-76
2022/08/23 02:34:42;;;;;;;2.00;1.80;;;18.00;33.60;;;;;;10578491;27;20304;-77
2022/08/23 02:39:45;;;;;;;2.63;1.77;;;18.00;33.20;;;;;;10595575;27;20766;-77
2022/08/23 02:44:50;;;;;;;2.60;2.10;;;17.80;33.20;;;;;;10609887;27;20256;-77
2022/08/23 02:49:53;;;;;;;1.83;1.73;;;17.80;34.20;;;;;;10596688;27;20226;-77
2022/08/23 02:54:56;;;;;;;1.90;1.80;;;17.60;33.60;;;;;;10587813;27;20229;-76
2022/08/23 03:00:02;;;;;;;2.00;1.90;;;17.60;33.70;;;;;;10590758;27;20658;-77
2022/08/23 03:05:06;;;;;;;2.43;2.00;;;17.60;34.40;;;;;;10607941;27;20218;-76
2022/08/23 03:10:11;;;;;;;1.90;1.80;;;17.60;34.40;;;;;;10590019;27;20222;-77
2022/08/23 03:15:17;;;;;;;2.00;1.80;;;17.50;34.20;;;;;;10587391;27;20226;-76
2022/08/23 03:20:21;;;;;;;1.80;1.70;;;17.50;34.30;;;;;;10585993;27;20325;-77
2022/08/23 03:25:28;;;;;;;2.20;2.00;;;17.40;34.20;;;;;;10588884;27;20579;-76
2022/08/23 03:30:33;;;;;;;2.10;2.00;;;17.40;34.20;;;;;;10589673;27;20248;-77
2022/08/23 03:35:36;;;;;;;2.30;2.17;;;17.40;34.20;;;;;;10587836;27;20250;-76
2022/08/23 03:40:39;;;;;;;1.80;1.70;;;17.30;34.10;;;;;;10585556;27;20241;-77
2022/08/23 03:45:44;;;;;;;2.20;1.77;;;17.20;34.00;;;;;;10600697;27;20219;-77
2022/08/23 03:50:48;;;;;;;2.07;1.97;;;17.10;34.20;;;;;;10591870;27;20227;-77
2022/08/23 03:55:53;;;;;;;2.07;1.60;;;17.10;34.00;;;;;;10603045;27;20226;-77
2022/08/23 04:00:58;;;;;;;2.27;2.03;;;17.10;34.30;;;;;;10588897;27;20223;-76
2022/08/23 04:06:01;;;;;;;2.20;2.00;;;17.10;34.60;;;;;;10586699;27;20218;-77
2022/08/23 04:11:06;;;;;;;3.90;1.97;;;17.10;34.00;;;;;;10586924;27;20269;-73
2022/08/23 04:16:11;;;;;;;1.90;1.80;;;17.00;33.90;;;;;;10586288;27;20226;-73
2022/08/23 04:21:18;;;;;;;2.17;2.07;;;17.00;34.50;;;;;;10584965;27;20258;-73
2022/08/23 04:26:22;;;;;;;1.90;1.80;;;17.00;34.70;;;;;;10581903;27;20276;-73
2022/08/23 04:31:33;;;;;;;2.00;1.90;;;16.90;33.80;;;;;;10585803;27;20889;-73
2022/08/23 04:36:42;;;;;;;1.87;1.77;;;16.80;34.70;;;;;;10590352;27;20227;-73
2022/08/23 04:47:22;;;;;;;2.27;2.13;;;16.80;34.60;;;;;;10583629;27;20615;-73
2022/08/23 04:52:26;;;;;;;2.20;2.00;;;16.80;35.70;;;;;;10587140;27;20664;-72
2022/08/23 04:57:29;;;;;;;2.23;1.93;;;16.80;34.80;;;;;;10586229;27;20561;-72
2022/08/23 05:02:37;;;;;;;2.87;2.27;;;16.70;34.70;;;;;;10577789;27;20280;-72
2022/08/23 05:07:40;;;;;;;2.60;2.30;;;16.70;35.80;;;;;;10596294;27;20690;-72
2022/08/23 05:12:46;;;;;;;3.90;2.10;;;16.70;35.00;;;;;;10615569;27;20272;-72
2022/08/23 05:17:51;;;;;;;2.60;2.40;;;16.60;35.20;;;;;;10589128;27;20233;-72
2022/08/23 05:22:55;;;;;;;2.43;2.23;;;16.60;35.90;;;;;;10591420;27;20227;-72
2022/08/23 05:27:58;;;;;;;2.47;2.27;;;16.60;35.60;;;;;;10590734;27;20240;-73
2022/08/23 05:33:05;;;;;;;2.80;2.60;;;16.60;35.90;;;;;;10586418;27;20223;-72
2022/08/23 05:38:10;;;;;;;3.10;2.67;;;16.60;36.60;;;;;;10589784;27;20622;-72
2022/08/23 05:43:13;;;;;;;2.53;2.33;;;16.60;36.30;;;;;;10590936;27;20230;-71
2022/08/23 05:48:21;;;;;;;2.80;2.60;;;16.60;36.50;;;;;;10591390;27;20215;-72
2022/08/23 05:53:34;;;;;;;3.00;2.73;;;16.60;37.40;;;;;;10589122;27;20670;-72
2022/08/23 05:58:38;;;;;;;2.80;2.60;;;16.70;38.50;;;;;;10593883;27;20219;-71
2022/08/23 06:03:43;;;;;;;3.23;2.93;;;16.70;37.20;;;;;;10590877;27;20312;-71
2022/08/23 06:08:49;;;;;;;3.57;2.97;;;16.80;38.20;;;;;;10594041;27;20317;-72
2022/08/23 06:13:54;;;;;;;3.83;3.00;;;16.80;38.20;;;;;;10590714;27;20604;-72
2022/08/23 06:19:01;;;;;;;3.23;3.00;;;16.90;38.40;;;;;;10594959;27;20229;-72
2022/08/23 06:24:05;;;;;;;3.70;3.40;;;17.00;39.30;;;;;;10593620;27;20854;-72
2022/08/23 06:29:13;;;;;;;4.90;3.50;;;17.10;38.90;;;;;;10605223;27;20226;-73
2022/08/23 06:34:21;;;;;;;3.63;3.33;;;17.20;39.50;;;;;;10581307;27;20230;-72
2022/08/23 06:39:29;;;;;;;3.33;3.13;;;17.30;40.90;;;;;;10579720;27;20862;-73
2022/08/23 06:44:41;;;;;;;3.73;3.43;;;17.40;40.70;;;;;;10578348;27;20222;-72
2022/08/23 06:49:46;;;;;;;4.00;3.70;;;17.60;40.60;;;;;;10577242;27;20223;-72
2022/08/23 06:55:01;;;;;;;4.97;4.00;;;17.70;40.50;;;;;;10578970;27;20263;-72
2022/08/23 07:00:09;;;;;;;4.83;4.43;;;17.90;39.60;;;;;;10584015;27;20721;-73
2022/08/23 07:05:14;;;;;;;4.80;4.40;;;18.10;40.00;;;;;;10590843;27;20323;-72
2022/08/23 07:10:19;;;;;;;5.40;4.67;;;18.30;40.20;;;;;;10573163;27;20263;-72
2022/08/23 07:15:22;;;;;;;4.80;4.50;;;18.40;39.70;;;;;;10594218;27;20706;-72
2022/08/23 07:20:37;;;;;;;6.10;5.20;;;18.60;39.70;;;;;;10592208;27;20232;-73
2022/08/23 07:25:41;;;;;;;5.77;4.57;;;18.70;40.80;;;;;;10568802;27;20239;-71
2022/08/23 07:30:44;;;;;;;5.13;4.73;;;18.90;40.00;;;;;;10571881;27;20221;-71
2022/08/23 07:35:50;;;;;;;5.30;4.80;;;19.10;39.90;;;;;;10574159;27;20237;-72
2022/08/23 07:41:02;;;;;;;4.50;3.90;;;19.20;40.10;;;;;;10575674;27;20502;-71
2022/08/23 07:46:08;;;;;;;4.93;4.53;;;19.40;39.40;;;;;;10577561;27;20222;-72
2022/08/23 07:51:16;;;;;;;4.37;3.97;;;19.60;39.70;;;;;;10582042;27;20230;-71
2022/08/23 07:56:20;;;;;;;3.73;3.43;;;19.90;40.00;;;;;;10579331;27;20612;-72
2022/08/23 08:01:28;;;;;;;3.70;3.40;;;20.10;39.60;;;;;;10578848;27;20576;-71
2022/08/23 08:06:36;;;;;;;2.90;2.70;;;20.40;39.20;;;;;;10588848;27;20670;-71
2022/08/23 08:11:43;;;;;;;3.67;2.80;;;20.70;38.20;;;;;;10583923;27;20222;-73
2022/08/23 08:16:49;;;;;;;3.07;2.70;;;21.00;37.40;;;;;;10587314;27;20587;-71
2022/08/23 08:21:53;;;;;;;2.93;2.40;;;21.40;38.00;;;;;;10586535;27;20254;-72
2022/08/23 08:26:56;;;;;;;3.10;2.80;;;21.70;38.00;;;;;;10589259;27;20219;-71
2022/08/23 08:32:00;;;;;;;3.27;2.67;;;22.00;38.30;;;;;;10585460;27;20225;-73
2022/08/23 08:37:05;;;;;;;2.90;2.60;;;22.30;37.40;;;;;;10588469;27;20215;-73
2022/08/23 08:42:25;;;;;;;2.60;2.40;;;22.60;36.80;;;;;;10592602;27;20226;-72
2022/08/23 08:47:34;;;;;;;2.77;2.50;;;22.90;36.50;;;;;;10589503;27;20223;-72
2022/08/23 08:52:43;;;;;;;3.93;2.30;;;23.20;35.90;;;;;;10585616;27;20215;-73
2022/08/23 08:57:48;;;;;;;3.33;2.70;;;23.60;35.80;;;;;;10581302;27;20570;-73
2022/08/23 09:02:53;;;;;;;3.03;2.33;;;23.80;35.40;;;;;;10585692;27;21022;-75
2022/08/23 09:08:10;;;;;;;3.33;2.63;;;24.10;34.90;;;;;;10586870;27;20214;-74
2022/08/23 09:13:46;;;;;;;2.97;2.70;;;24.30;33.60;;;;;;10581976;27;20716;-73
2022/08/23 09:18:49;;;;;;;3.20;2.30;;;24.60;33.90;;;;;;10577788;27;20219;-71
2022/08/23 09:23:54;;;;;;;3.03;2.83;;;24.80;34.10;;;;;;10580028;27;20226;-71
2022/08/23 09:29:12;;;;;;;2.83;2.50;;;25.00;33.00;;;;;;10579117;27;20233;-73
2022/08/23 09:34:19;;;;;;;3.17;2.73;;;25.20;33.10;;;;;;10581081;27;20226;-72
2022/08/23 09:39:30;;;;;;;4.03;2.40;;;25.40;33.10;;;;;;10585624;27;20751;-70
2022/08/23 09:44:38;;;;;;;3.00;2.20;;;25.60;31.10;;;;;;10587707;27;20697;-71
2022/08/23 09:49:46;;;;;;;2.87;2.23;;;25.70;30.40;;;;;;10589914;27;20303;-74
2022/08/23 09:55:01;;;;;;;2.43;2.23;;;25.90;30.60;;;;;;10583505;27;20223;-72
2022/08/23 10:00:26;;;;;;;2.00;1.80;;;26.10;29.30;;;;;;10587928;27;20304;-71
2022/08/23 10:05:36;;;;;;;2.10;2.00;;;26.30;27.70;;;;;;10585278;27;20901;-71
2022/08/23 10:10:45;;;;;;;2.97;2.20;;;26.40;29.40;;;;;;10589555;27;20215;-75
2022/08/23 10:16:04;;;;;;;3.23;2.10;;;26.40;29.30;;;;;;10584895;27;20573;-76
2022/08/23 10:21:13;;;;;;;2.37;2.07;;;26.60;28.80;;;;;;10584069;27;20230;-76
2022/08/23 10:26:27;;;;;;;2.63;2.10;;;26.90;29.10;;;;;;10582080;27;20825;-76
2022/08/23 10:31:41;;;;;;;2.27;2.07;;;27.10;28.30;;;;;;10579246;27;20729;-76
2022/08/23 10:36:52;;;;;;;2.33;2.13;;;27.30;28.10;;;;;;10584077;27;20709;-77
2022/08/23 10:42:03;;;;;;;2.30;2.10;;;27.50;28.00;;;;;;10584970;27;20226;-75
2022/08/23 10:47:18;;;;;;;2.87;2.50;;;27.60;27.30;;;;;;10585463;27;21221;-76
2022/08/23 10:52:27;;;;;;;4.63;2.60;;;27.80;26.60;;;;;;10587422;27;20240;-76
2022/08/23 10:57:35;;;;;;;2.97;2.20;;;27.80;26.00;;;;;;10585099;27;20218;-78
2022/08/23 11:02:48;;;;;;;2.67;2.30;;;27.80;26.40;;;;;;10587343;27;20229;-78
2022/08/23 11:08:02;;;;;;;2.43;2.23;;;27.90;25.90;;;;;;10585783;27;20215;-77
2022/08/23 11:13:21;;;;;;;2.57;2.37;;;27.90;26.10;;;;;;10583136;27;20231;-85
2022/08/23 11:18:43;;;;;;;2.40;2.20;;;28.00;26.50;;;;;;10588998;27;20226;-78
2022/08/23 11:23:50;;;;;;;2.83;2.40;;;28.00;26.20;;;;;;10579727;27;20602;-78
2022/08/23 11:29:17;;;;;;;3.27;2.30;;;28.10;26.30;;;;;;10580793;27;20222;-78
2022/08/23 11:34:23;;;;;;;2.93;2.50;;;28.10;26.00;;;;;;10581112;27;20257;-78
2022/08/23 11:40:07;;;;;;;2.83;2.60;;;28.10;26.20;;;;;;10588784;27;20240;-78
2022/08/23 11:45:25;;;;;;;2.53;2.33;;;28.20;25.90;;;;;;10584669;27;20225;-78
2022/08/23 11:50:39;;;;;;;2.37;2.17;;;28.30;25.50;;;;;;10583116;27;20222;-78
2022/08/23 11:56:14;;;;;;;2.50;2.30;;;28.40;25.90;;;;;;10581901;27;20563;-78
2022/08/23 12:01:30;;;;;;;2.13;1.97;;;28.50;24.80;;;;;;10577559;27;20715;-78
2022/08/23 12:06:41;;;;;;;3.67;2.33;;;28.50;24.90;;;;;;10584257;27;20731;-79
2022/08/23 12:12:24;;;;;;;2.43;2.23;;;28.50;24.40;;;;;;10585083;27;20226;-78
2022/08/23 12:18:12;;;;;;;2.40;2.20;;;28.60;25.50;;;;;;10521964;27;20222;-78
2022/08/23 12:23:20;;;;;;;2.23;2.13;;;28.60;25.40;;;;;;10517113;27;20219;-78
2022/08/23 12:28:35;;;;;;;2.23;2.10;;;28.70;24.80;;;;;;10593686;27;20330;-78
2022/08/23 12:33:52;;;;;;;4.07;2.60;;;28.70;24.60;;;;;;10592837;27;20795;-78
2022/08/23 12:39:00;;;;;;;2.40;2.20;;;28.70;24.40;;;;;;10592485;27;20693;-78
2022/08/23 12:44:08;;;;;;;2.03;1.90;;;28.70;24.40;;;;;;10588548;27;20227;-77
2022/08/23 12:49:28;;;;;;;2.40;2.20;;;28.70;24.50;;;;;;10595661;27;20226;-78
2022/08/23 12:54:35;;;;;;;2.93;2.27;;;28.70;24.60;;;;;;10589321;27;20225;-78
2022/08/23 12:59:43;;;;;;;2.90;2.10;;;28.70;24.10;;;;;;10590607;27;20215;-78
2022/08/23 13:04:47;;;;;;;2.00;1.90;;;28.70;23.70;;;;;;10587433;27;20710;-76
2022/08/23 13:09:52;;;;;;;2.40;2.20;;;28.70;24.10;;;;;;10588461;27;20221;-76
2022/08/23 13:15:00;;;;;;;1.90;1.80;;;28.80;24.40;;;;;;10592652;27;20309;-76
2022/08/23 13:20:20;;;;;;;2.70;1.90;;;28.80;23.70;;;;;;10588711;27;20585;-76
2022/08/23 13:25:27;;;;;;;1.97;1.87;;;28.80;22.30;;;;;;10589905;27;20693;-76
2022/08/23 13:30:36;;;;;;;1.70;1.60;;;28.90;22.50;;;;;;10586824;27;20226;-77
2022/08/23 13:35:43;;;;;;;1.80;1.70;;;28.90;22.50;;;;;;10582745;27;20238;-77
2022/08/23 13:40:59;;;;;;;1.70;1.60;;;29.00;21.50;;;;;;10592343;27;20218;-77
2022/08/23 13:46:12;;;;;;;1.70;1.60;;;29.00;20.60;;;;;;10584545;27;20215;-76
2022/08/23 13:51:28;;;;;;;3.27;1.70;;;29.00;20.60;;;;;;10587785;27;20233;-77
2022/08/23 13:56:36;;;;;;;1.50;1.40;;;29.00;20.40;;;;;;10586025;27;20214;-77
2022/08/23 14:01:40;;;;;;;1.80;1.70;;;29.10;20.60;;;;;;10587643;27;20219;-77
2022/08/23 14:06:44;;;;;;;1.80;1.70;;;29.10;21.00;;;;;;10585797;27;20694;-77
2022/08/23 14:11:54;;;;;;;1.83;1.73;;;29.20;20.70;;;;;;10592101;27;20246;-77
2022/08/23 14:16:57;;;;;;;2.53;1.80;;;29.20;20.70;;;;;;10589683;27;20222;-77
2022/08/23 14:22:06;;;;;;;1.83;1.60;;;29.20;20.70;;;;;;10587262;27;20309;-77
2022/08/23 14:27:10;;;;;;;3.10;1.97;;;29.20;20.70;;;;;;10589869;27;20228;-77
2022/08/23 14:32:13;;;;;;;1.70;1.60;;;29.30;20.80;;;;;;10590199;27;20604;-77
2022/08/23 14:37:18;;;;;;;1.60;1.50;;;29.30;20.70;;;;;;10583944;27;20242;-76
2022/08/23 14:42:41;;;;;;;1.63;1.50;;;29.40;19.90;;;;;;10588901;27;20221;-77
2022/08/23 14:47:45;;;;;;;1.57;1.47;;;29.40;20.20;;;;;;10585341;27;20223;-77
2022/08/23 14:52:49;;;;;;;1.70;1.60;;;29.50;20.00;;;;;;10587764;27;20222;-77
2022/08/23 14:57:52;;;;;;;2.80;1.47;;;29.50;18.60;;;;;;10586025;27;20215;-77
2022/08/23 15:02:57;;;;;;;1.70;1.40;;;29.50;19.70;;;;;;10584923;27;20284;-77
2022/08/23 15:08:01;;;;;;;1.60;1.50;;;29.60;19.50;;;;;;10586288;27;20219;-77
2022/08/23 15:13:06;;;;;;;2.40;1.43;;;29.60;19.10;;;;;;10585431;27;20229;-76
2022/08/23 15:18:30;;;;;;;1.27;1.20;;;29.60;19.30;;;;;;10585175;27;20589;-77
2022/08/23 15:23:35;;;;;;;1.20;1.20;;;29.70;19.20;;;;;;10584559;27;20232;-77
2022/08/23 15:28:39;;;;;;;1.80;1.33;;;29.80;18.50;;;;;;10584645;27;20215;-77
2022/08/23 15:33:42;;;;;;;1.53;1.37;;;29.80;18.50;;;;;;10584257;27;20218;-77
2022/08/23 15:38:48;;;;;;;1.70;1.30;;;29.80;18.60;;;;;;10584105;27;20230;-76
2022/08/23 15:43:51;;;;;;;1.47;1.37;;;29.80;17.70;;;;;;10582087;27;20227;-77
2022/08/23 15:48:57;;;;;;;1.40;1.30;;;29.80;18.40;;;;;;10584299;27;20222;-77
2022/08/23 15:54:02;;;;;;;1.80;1.40;;;29.90;17.90;;;;;;10582221;27;20223;-77
2022/08/23 15:59:10;;;;;;;1.20;1.10;;;29.90;17.00;;;;;;10587134;27;20750;-77
2022/08/23 16:04:13;;;;;;;1.40;1.20;;;29.90;16.80;;;;;;10583012;27;20729;-77
2022/08/23 16:09:22;;;;;;;1.30;1.20;;;29.90;17.50;;;;;;10584331;27;20218;-77
2022/08/23 16:14:26;;;;;;;1.10;1.10;;;29.90;16.10;;;;;;10581428;27;20618;-77
2022/08/23 16:19:29;;;;;;;1.00;1.00;;;29.90;16.90;;;;;;10583257;27;20218;-77
2022/08/23 16:24:33;;;;;;;1.20;1.10;;;29.90;16.60;;;;;;10586926;27;20773;-77
2022/08/23 16:29:37;;;;;;;1.10;1.10;;;29.90;16.20;;;;;;10581000;27;20227;-77
2022/08/23 16:34:41;;;;;;;1.20;1.10;;;29.90;16.70;;;;;;10584605;22;20581;-78
2022/08/23 16:39:46;;;;;;;0.90;0.90;;;29.90;16.80;;;;;;10571022;28;20231;-78
2022/08/23 16:44:49;;;;;;;2.10;1.30;;;29.90;16.10;;;;;;10541508;28;20227;-78
2022/08/23 16:49:52;;;;;;;3.10;1.10;;;30.00;16.50;;;;;;10544698;28;20231;-78
2022/08/23 16:54:57;;;;;;;2.93;1.00;;;30.00;16.80;;;;;;10558217;28;20219;-77
2022/08/23 17:00:00;;;;;;;2.70;1.00;;;30.00;16.60;;;;;;10557653;28;20856;-78
2022/08/23 17:05:04;;;;;;;1.10;1.00;;;30.00;16.80;;;;;;10574157;28;20223;-77
2022/08/23 17:10:11;;;;;;;1.00;1.00;;;30.00;16.90;;;;;;10566151;28;20237;-78
2022/08/23 17:15:16;;;;;;;1.00;1.00;;;30.00;16.40;;;;;;10568894;28;20223;-78
2022/08/23 17:20:24;;;;;;;1.10;1.10;;;30.00;17.60;;;;;;10584521;28;20246;-78
2022/08/23 17:25:29;;;;;;;1.17;1.10;;;29.90;17.10;;;;;;10575349;28;20233;-78
2022/08/23 17:30:33;;;;;;;2.07;1.30;;;29.80;17.20;;;;;;10574995;28;20228;-78
2022/08/23 17:35:36;;;;;;;1.10;1.10;;;29.70;18.00;;;;;;10559050;28;20223;-78
2022/08/23 17:40:41;;;;;;;2.50;0.90;;;29.60;17.70;;;;;;10549920;28;20245;-78
2022/08/23 17:45:47;;;;;;;1.00;1.00;;;29.40;18.20;;;;;;10564808;28;20227;-79
2022/08/23 17:50:50;;;;;;;1.67;1.20;;;29.30;18.30;;;;;;10565734;28;20634;-78
2022/08/23 17:55:56;;;;;;;1.93;1.43;;;29.20;18.80;;;;;;10559725;28;20215;-78
2022/08/23 18:01:00;;;;;;;1.63;1.30;;;29.00;19.10;;;;;;10557911;28;20239;-79
2022/08/23 18:06:03;;;;;;;1.37;1.20;;;28.90;19.30;;;;;;10561591;28;20306;-77
2022/08/23 18:11:20;;;;;;;1.47;1.33;;;28.80;19.50;;;;;;10565013;28;20717;-78
2022/08/23 18:16:27;;;;;;;1.63;1.17;;;28.60;19.70;;;;;;10562200;28;20223;-78
2022/08/23 18:21:37;;;;;;;1.73;1.63;;;28.50;19.80;;;;;;10567640;28;20242;-79
2022/08/23 18:32:05;;;;;;;3.33;2.60;;;28.20;19.70;;;;;;10563257;28;20307;-78
2022/08/23 18:37:09;;;;;;;1.93;1.60;;;27.90;20.00;;;;;;10573595;28;20227;-79
2022/08/23 18:42:14;;;;;;;1.50;1.40;;;27.70;20.70;;;;;;10557241;28;20985;-78
2022/08/23 18:47:17;;;;;;;1.30;1.20;;;27.60;21.20;;;;;;10552183;28;20224;-78
2022/08/23 18:52:20;;;;;;;1.67;1.50;;;27.30;20.80;;;;;;10581221;28;20690;-77
2022/08/23 18:57:25;;;;;;;1.33;1.30;;;27.10;21.10;;;;;;10569859;28;20220;-78
2022/08/23 19:02:28;;;;;;;1.70;1.60;;;26.90;21.80;;;;;;10563160;28;20227;-77
2022/08/23 19:07:32;;;;;;;1.50;1.30;;;26.70;21.80;;;;;;10562407;28;20302;-79
2022/08/23 19:12:37;;;;;;;1.70;1.60;;;26.50;21.70;;;;;;10566973;28;20647;-78
2022/08/23 19:17:53;;;;;;;1.50;1.40;;;26.20;22.10;;;;;;10558459;28;20230;-79
2022/08/23 19:22:57;;;;;;;2.50;1.50;;;26.00;22.10;;;;;;10575244;28;20233;-78
2022/08/23 19:28:02;;;;;;;2.80;1.80;;;25.90;22.60;;;;;;10559792;28;20254;-78
2022/08/23 19:33:05;;;;;;;1.60;1.43;;;25.60;22.70;;;;;;10564105;28;20876;-78
2022/08/23 19:38:08;;;;;;;2.30;1.37;;;25.20;23.00;;;;;;10563319;28;20721;-78
2022/08/23 19:43:13;;;;;;;1.47;1.37;;;24.90;23.20;;;;;;10570986;28;20227;-78
2022/08/23 19:48:18;;;;;;;1.90;1.70;;;24.60;23.70;;;;;;10555259;28;20272;-78
2022/08/23 19:53:21;;;;;;;1.60;1.50;;;24.40;23.70;;;;;;10575454;28;20263;-78
2022/08/23 19:58:26;;;;;;;2.33;1.73;;;24.30;24.10;;;;;;10571311;28;20234;-78
2022/08/23 20:03:29;;;;;;;1.60;1.50;;;24.10;24.50;;;;;;10555360;28;20223;-78
2022/08/23 20:08:33;;;;;;;1.90;1.80;;;24.10;24.30;;;;;;10554147;28;20654;-77
2022/08/23 20:13:37;;;;;;;1.70;1.60;;;24.00;24.60;;;;;;10545747;28;20229;-78
2022/08/23 20:18:41;;;;;;;1.70;1.60;;;23.90;25.10;;;;;;10558015;28;20695;-78
2022/08/23 20:24:03;;;;;;;1.73;1.63;;;23.80;24.90;;;;;;10574778;28;20484;-78
2022/08/23 20:29:10;;;;;;;2.17;2.07;;;23.70;25.10;;;;;;10548705;28;20217;-78
2022/08/23 20:34:13;;;;;;;2.80;2.20;;;23.60;25.60;;;;;;10561150;28;20757;-78
2022/08/23 20:39:16;;;;;;;2.53;2.27;;;23.50;25.30;;;;;;10562733;28;20225;-77
2022/08/23 20:44:27;;;;;;;3.03;2.10;;;23.30;25.50;;;;;;10576157;28;20247;-78
2022/08/23 20:49:37;;;;;;;2.10;2.00;;;23.10;25.90;;;;;;10567891;28;20656;-78
2022/08/23 20:54:41;;;;;;;2.30;2.10;;;22.90;26.40;;;;;;10557488;28;20216;-78
2022/08/23 20:59:46;;;;;;;2.20;2.10;;;22.80;26.00;;;;;;10569430;28;20616;-79
2022/08/23 21:04:49;;;;;;;2.30;2.10;;;22.70;27.00;;;;;;10570557;28;20227;-78
2022/08/23 21:09:52;;;;;;;2.33;2.03;;;22.60;26.50;;;;;;10569287;28;20235;-78
2022/08/23 21:14:57;;;;;;;4.17;2.20;;;22.60;26.80;;;;;;10568840;28;20222;-78
2022/08/23 21:20:00;;;;;;;2.17;2.03;;;22.50;27.00;;;;;;10566965;28;20233;-76
2022/08/23 21:25:04;;;;;;;1.87;1.77;;;22.40;26.90;;;;;;10558427;28;20231;-76
2022/08/23 21:30:10;;;;;;;2.77;2.10;;;22.30;26.90;;;;;;10565420;28;20848;-77
2022/08/23 21:35:13;;;;;;;2.00;1.87;;;22.20;27.60;;;;;;10558952;28;20228;-76
2022/08/23 21:40:17;;;;;;;1.70;1.60;;;22.10;26.70;;;;;;10562339;28;20223;-77
2022/08/23 21:45:22;;;;;;;1.90;1.80;;;22.10;26.80;;;;;;10552234;28;20223;-76
2022/08/23 21:50:25;;;;;;;1.83;1.70;;;22.00;27.60;;;;;;10558181;28;20300;-76
2022/08/23 21:55:30;;;;;;;1.90;1.80;;;22.00;27.30;;;;;;10565013;28;20727;-76
2022/08/23 22:00:41;;;;;;;2.00;1.90;;;22.00;27.40;;;;;;10557075;28;20226;-76
2022/08/23 22:05:45;;;;;;;2.10;2.00;;;21.90;28.00;;;;;;10555046;28;20230;-76
2022/08/23 22:10:49;;;;;;;2.80;2.60;;;21.90;27.90;;;;;;10553347;28;20227;-76
2022/08/23 22:16:01;;;;;;;2.43;2.23;;;21.80;27.80;;;;;;10552947;28;20221;-75
2022/08/23 22:21:06;;;;;;;4.37;2.93;;;21.80;28.20;;;;;;10549732;28;20268;-76
2022/08/23 22:26:09;;;;;;;3.77;2.70;;;21.70;28.20;;;;;;10553415;28;20223;-76
2022/08/23 22:31:15;;;;;;;3.27;3.07;;;21.60;27.90;;;;;;10557291;28;20234;-76
2022/08/23 22:36:21;;;;;;;4.03;3.73;;;21.50;28.80;;;;;;10554664;28;20898;-76
2022/08/23 22:41:27;;;;;;;3.70;3.40;;;21.40;28.90;;;;;;10556968;28;20702;-76
2022/08/23 22:46:33;;;;;;;3.97;3.43;;;21.30;28.90;;;;;;10553220;28;20234;-76
2022/08/23 22:51:37;;;;;;;3.83;3.53;;;21.20;29.10;;;;;;10545990;28;20564;-76
2022/08/23 22:56:44;;;;;;;3.50;3.20;;;21.20;28.80;;;;;;10554716;28;20219;-76
2022/08/23 23:01:51;;;;;;;3.20;3.00;;;21.20;29.40;;;;;;10553252;28;20230;-76
2022/08/23 23:06:55;;;;;;;3.80;3.43;;;21.10;29.50;;;;;;10552143;28;20219;-76
2022/08/23 23:11:58;;;;;;;3.77;3.37;;;21.10;29.20;;;;;;10557574;28;20222;-76
2022/08/23 23:17:03;;;;;;;3.20;2.90;;;21.00;29.20;;;;;;10544770;28;20226;-76
2022/08/23 23:22:07;;;;;;;4.23;3.50;;;20.90;29.60;;;;;;10548237;28;20279;-76
2022/08/23 23:27:10;;;;;;;3.27;3.07;;;20.90;29.50;;;;;;10553376;28;20219;-76
2022/08/23 23:32:16;;;;;;;2.83;2.43;;;20.80;29.40;;;;;;10555376;28;20271;-76
2022/08/23 23:37:20;;;;;;;2.60;2.40;;;20.80;30.30;;;;;;10550617;28;20234;-76
2022/08/23 23:42:23;;;;;;;2.37;2.17;;;20.70;29.60;;;;;;10561264;28;20238;-76
2022/08/23 23:47:27;;;;;;;2.20;2.10;;;20.70;29.70;;;;;;10548710;28;20722;-76
2022/08/23 23:52:31;;;;;;;2.20;2.00;;;20.60;30.00;;;;;;10548455;28;20234;-76
2022/08/23 23:57:34;;;;;;;2.47;2.27;;;20.60;29.70;;;;;;10548094;28;20726;-76
